sensor_id;sensor_type;location;lat;lon;timestamp;P1;durP1;ratioP1;P2;durP2;ratioP2
15990;SDS011;8100;50.994;4.538;2022-07-23T00:00:42;5.70;;;3.67;;
15990;SDS011;8100;50.994;4.538;2022-07-23T00:03:31;6.50;;;4.20;;
15990;SDS011;8100;50.994;4.538;2022-07-23T00:06:18;5.90;;;4.05;;
15990;SDS011;8100;50.994;4.538;2022-07-23T00:09:05;5.05;;;3.50;;
15990;SDS011;8100;50.994;4.538;2022-07-23T00:11:52;5.43;;;3.88;;
15990;SDS011;8100;50.994;4.538;2022-07-23T00:14:39;5.30;;;3.38;;
15990;SDS011;8100;50.994;4.538;2022-07-23T00:17:27;5.85;;;3.67;;
15990;SDS011;8100;50.994;4.538;2022-07-23T00:20:15;5.40;;;4.00;;
15990;SDS011;8100;50.994;4.538;2022-07-23T00:23:02;5.03;;;3.45;;
15990;SDS011;8100;50.994;4.538;2022-07-23T00:25:50;5.55;;;3.47;;
15990;SDS011;8100;50.994;4.538;2022-07-23T00:28:37;6.20;;;3.80;;
15990;SDS011;8100;50.994;4.538;2022-07-23T00:31:25;5.57;;;3.83;;
15990;SDS011;8100;50.994;4.538;2022-07-23T00:34:12;6.30;;;4.25;;
15990;SDS011;8100;50.994;4.538;2022-07-23T00:37:01;5.03;;;3.42;;
15990;SDS011;8100;50.994;4.538;2022-07-23T00:39:48;6.93;;;3.38;;
15990;SDS011;8100;50.994;4.538;2022-07-23T00:42:35;6.97;;;3.90;;
15990;SDS011;8100;50.994;4.538;2022-07-23T00:45:23;6.07;;;4.22;;
15990;SDS011;8100;50.994;4.538;2022-07-23T00:48:10;6.32;;;4.07;;
15990;SDS011;8100;50.994;4.538;2022-07-23T00:50:57;8.25;;;4.05;;
15990;SDS011;8100;50.994;4.538;2022-07-23T00:53:46;7.38;;;3.88;;
15990;SDS011;8100;50.994;4.538;2022-07-23T00:56:33;6.90;;;4.10;;
15990;SDS011;8100;50.994;4.538;2022-07-23T00:59:21;7.40;;;4.13;;
15990;SDS011;8100;50.994;4.538;2022-07-23T01:02:08;5.93;;;3.80;;
15990;SDS011;8100;50.994;4.538;2022-07-23T01:04:56;6.22;;;4.32;;
15990;SDS011;8100;50.994;4.538;2022-07-23T01:07:43;5.20;;;3.85;;
15990;SDS011;8100;50.994;4.538;2022-07-23T01:10:32;7.25;;;3.88;;
15990;SDS011;8100;50.994;4.538;2022-07-23T01:13:19;6.97;;;4.03;;
15990;SDS011;8100;50.994;4.538;2022-07-23T01:16:07;6.47;;;4.10;;
15990;SDS011;8100;50.994;4.538;2022-07-23T01:18:54;7.05;;;4.38;;
15990;SDS011;8100;50.994;4.538;2022-07-23T01:21:42;6.38;;;4.13;;
15990;SDS011;8100;50.994;4.538;2022-07-23T01:24:31;6.60;;;3.88;;
15990;SDS011;8100;50.994;4.538;2022-07-23T01:27:19;6.40;;;3.97;;
15990;SDS011;8100;50.994;4.538;2022-07-23T01:30:06;6.80;;;4.15;;
15990;SDS011;8100;50.994;4.538;2022-07-23T01:32:54;6.93;;;3.72;;
15990;SDS011;8100;50.994;4.538;2022-07-23T01:35:41;5.72;;;3.90;;
15990;SDS011;8100;50.994;4.538;2022-07-23T01:38:29;5.90;;;3.53;;
15990;SDS011;8100;50.994;4.538;2022-07-23T01:41:17;7.22;;;4.07;;
15990;SDS011;8100;50.994;4.538;2022-07-23T01:44:04;5.55;;;3.70;;
15990;SDS011;8100;50.994;4.538;2022-07-23T01:46:52;6.75;;;3.90;;
15990;SDS011;8100;50.994;4.538;2022-07-23T01:49:39;6.63;;;4.18;;
15990;SDS011;8100;50.994;4.538;2022-07-23T01:52:26;5.97;;;3.58;;
15990;SDS011;8100;50.994;4.538;2022-07-23T01:55:13;6.95;;;3.88;;
15990;SDS011;8100;50.994;4.538;2022-07-23T01:58:02;6.85;;;4.53;;
15990;SDS011;8100;50.994;4.538;2022-07-23T02:00:50;7.50;;;4.78;;
15990;SDS011;8100;50.994;4.538;2022-07-23T02:03:38;7.65;;;4.25;;
15990;SDS011;8100;50.994;4.538;2022-07-23T02:06:25;7.10;;;4.32;;
15990;SDS011;8100;50.994;4.538;2022-07-23T02:09:12;6.60;;;4.20;;
15990;SDS011;8100;50.994;4.538;2022-07-23T02:11:59;7.65;;;3.60;;
15990;SDS011;8100;50.994;4.538;2022-07-23T02:14:48;6.00;;;3.60;;
15990;SDS011;8100;50.994;4.538;2022-07-23T02:17:35;6.15;;;4.20;;
15990;SDS011;8100;50.994;4.538;2022-07-23T02:20:23;7.13;;;4.18;;
15990;SDS011;8100;50.994;4.538;2022-07-23T02:23:11;7.55;;;4.53;;
15990;SDS011;8100;50.994;4.538;2022-07-23T02:25:58;5.35;;;3.78;;
15990;SDS011;8100;50.994;4.538;2022-07-23T02:28:45;5.93;;;4.05;;
15990;SDS011;8100;50.994;4.538;2022-07-23T02:31:33;6.18;;;4.10;;
15990;SDS011;8100;50.994;4.538;2022-07-23T02:34:21;8.25;;;4.35;;
15990;SDS011;8100;50.994;4.538;2022-07-23T02:37:08;5.90;;;4.00;;
15990;SDS011;8100;50.994;4.538;2022-07-23T02:39:55;7.45;;;4.50;;
15990;SDS011;8100;50.994;4.538;2022-07-23T02:42:42;5.78;;;4.03;;
15990;SDS011;8100;50.994;4.538;2022-07-23T02:45:29;6.57;;;4.20;;
15990;SDS011;8100;50.994;4.538;2022-07-23T02:48:18;6.70;;;4.32;;
15990;SDS011;8100;50.994;4.538;2022-07-23T02:51:05;6.90;;;4.15;;
15990;SDS011;8100;50.994;4.538;2022-07-23T02:53:52;5.78;;;3.67;;
15990;SDS011;8100;50.994;4.538;2022-07-23T02:56:40;6.25;;;4.20;;
15990;SDS011;8100;50.994;4.538;2022-07-23T02:59:27;6.65;;;3.45;;
15990;SDS011;8100;50.994;4.538;2022-07-23T03:02:14;5.15;;;3.60;;
15990;SDS011;8100;50.994;4.538;2022-07-23T03:05:03;6.13;;;3.45;;
15990;SDS011;8100;50.994;4.538;2022-07-23T03:07:51;5.63;;;3.67;;
15990;SDS011;8100;50.994;4.538;2022-07-23T03:10:38;5.70;;;3.80;;
15990;SDS011;8100;50.994;4.538;2022-07-23T03:13:26;6.28;;;4.00;;
15990;SDS011;8100;50.994;4.538;2022-07-23T03:16:13;4.95;;;3.53;;
15990;SDS011;8100;50.994;4.538;2022-07-23T03:19:00;4.90;;;3.45;;
15990;SDS011;8100;50.994;4.538;2022-07-23T03:21:49;6.60;;;3.70;;
15990;SDS011;8100;50.994;4.538;2022-07-23T03:24:36;6.50;;;3.80;;
15990;SDS011;8100;50.994;4.538;2022-07-23T03:27:41;5.18;;;3.40;;
15990;SDS011;8100;50.994;4.538;2022-07-23T03:30:30;4.55;;;3.30;;
15990;SDS011;8100;50.994;4.538;2022-07-23T03:33:18;4.50;;;3.30;;
15990;SDS011;8100;50.994;4.538;2022-07-23T03:36:08;4.78;;;3.20;;
15990;SDS011;8100;50.994;4.538;2022-07-23T03:38:57;5.53;;;3.55;;
15990;SDS011;8100;50.994;4.538;2022-07-23T03:41:44;5.25;;;3.65;;
15990;SDS011;8100;50.994;4.538;2022-07-23T03:44:31;4.50;;;3.33;;
15990;SDS011;8100;50.994;4.538;2022-07-23T03:47:19;5.90;;;3.80;;
15990;SDS011;8100;50.994;4.538;2022-07-23T03:50:07;5.43;;;3.55;;
15990;SDS011;8100;50.994;4.538;2022-07-23T03:52:55;6.30;;;3.42;;
15990;SDS011;8100;50.994;4.538;2022-07-23T03:55:43;6.38;;;3.30;;
15990;SDS011;8100;50.994;4.538;2022-07-23T03:58:30;5.88;;;3.95;;
15990;SDS011;8100;50.994;4.538;2022-07-23T04:01:18;5.85;;;3.75;;
15990;SDS011;8100;50.994;4.538;2022-07-23T04:04:05;6.40;;;3.65;;
15990;SDS011;8100;50.994;4.538;2022-07-23T04:06:53;6.80;;;3.88;;
15990;SDS011;8100;50.994;4.538;2022-07-23T04:09:40;5.40;;;3.35;;
15990;SDS011;8100;50.994;4.538;2022-07-23T04:12:29;4.85;;;3.20;;
15990;SDS011;8100;50.994;4.538;2022-07-23T04:15:16;6.03;;;3.65;;
15990;SDS011;8100;50.994;4.538;2022-07-23T04:18:03;5.78;;;3.45;;
15990;SDS011;8100;50.994;4.538;2022-07-23T04:20:51;5.85;;;3.85;;
15990;SDS011;8100;50.994;4.538;2022-07-23T04:23:38;5.55;;;3.83;;
15990;SDS011;8100;50.994;4.538;2022-07-23T04:26:26;5.13;;;3.47;;
15990;SDS011;8100;50.994;4.538;2022-07-23T04:29:14;5.50;;;3.50;;
15990;SDS011;8100;50.994;4.538;2022-07-23T04:32:02;6.15;;;3.33;;
15990;SDS011;8100;50.994;4.538;2022-07-23T04:34:49;5.00;;;3.38;;
15990;SDS011;8100;50.994;4.538;2022-07-23T04:37:36;5.80;;;3.85;;
15990;SDS011;8100;50.994;4.538;2022-07-23T04:40:23;6.68;;;3.67;;
15990;SDS011;8100;50.994;4.538;2022-07-23T04:43:11;5.65;;;3.30;;
15990;SDS011;8100;50.994;4.538;2022-07-23T04:45:59;5.85;;;3.65;;
15990;SDS011;8100;50.994;4.538;2022-07-23T04:48:47;6.18;;;3.63;;
15990;SDS011;8100;50.994;4.538;2022-07-23T04:51:34;5.10;;;3.70;;
15990;SDS011;8100;50.994;4.538;2022-07-23T04:54:21;5.47;;;3.58;;
15990;SDS011;8100;50.994;4.538;2022-07-23T04:57:08;5.45;;;3.70;;
15990;SDS011;8100;50.994;4.538;2022-07-23T04:59:55;6.20;;;3.35;;
15990;SDS011;8100;50.994;4.538;2022-07-23T05:02:44;6.07;;;3.58;;
15990;SDS011;8100;50.994;4.538;2022-07-23T05:05:31;5.68;;;3.45;;
15990;SDS011;8100;50.994;4.538;2022-07-23T05:08:18;5.15;;;3.22;;
15990;SDS011;8100;50.994;4.538;2022-07-23T05:11:05;6.03;;;3.70;;
15990;SDS011;8100;50.994;4.538;2022-07-23T05:13:53;5.78;;;3.22;;
15990;SDS011;8100;50.994;4.538;2022-07-23T05:16:40;5.95;;;3.78;;
15990;SDS011;8100;50.994;4.538;2022-07-23T05:19:29;7.45;;;3.88;;
15990;SDS011;8100;50.994;4.538;2022-07-23T05:22:16;4.75;;;3.28;;
15990;SDS011;8100;50.994;4.538;2022-07-23T05:25:03;5.70;;;3.55;;
15990;SDS011;8100;50.994;4.538;2022-07-23T05:27:51;6.43;;;3.38;;
15990;SDS011;8100;50.994;4.538;2022-07-23T05:30:38;5.75;;;3.28;;
15990;SDS011;8100;50.994;4.538;2022-07-23T05:33:25;7.28;;;3.42;;
15990;SDS011;8100;50.994;4.538;2022-07-23T05:36:14;6.25;;;3.90;;
15990;SDS011;8100;50.994;4.538;2022-07-23T05:39:01;4.65;;;3.15;;
15990;SDS011;8100;50.994;4.538;2022-07-23T05:41:49;5.68;;;3.38;;
15990;SDS011;8100;50.994;4.538;2022-07-23T05:44:36;6.68;;;3.53;;
15990;SDS011;8100;50.994;4.538;2022-07-23T05:47:23;4.85;;;3.50;;
15990;SDS011;8100;50.994;4.538;2022-07-23T05:50:11;5.43;;;3.83;;
15990;SDS011;8100;50.994;4.538;2022-07-23T05:53:00;5.30;;;3.78;;
15990;SDS011;8100;50.994;4.538;2022-07-23T05:55:47;4.97;;;3.25;;
15990;SDS011;8100;50.994;4.538;2022-07-23T05:58:35;4.68;;;3.20;;
15990;SDS011;8100;50.994;4.538;2022-07-23T06:01:22;6.88;;;3.50;;
15990;SDS011;8100;50.994;4.538;2022-07-23T06:04:09;4.47;;;2.78;;
15990;SDS011;8100;50.994;4.538;2022-07-23T06:06:56;6.65;;;3.67;;
15990;SDS011;8100;50.994;4.538;2022-07-23T06:09:45;4.60;;;3.45;;
15990;SDS011;8100;50.994;4.538;2022-07-23T06:12:34;6.07;;;3.00;;
15990;SDS011;8100;50.994;4.538;2022-07-23T06:15:21;6.10;;;3.30;;
15990;SDS011;8100;50.994;4.538;2022-07-23T06:18:09;5.50;;;3.15;;
15990;SDS011;8100;50.994;4.538;2022-07-23T06:20:56;6.32;;;3.67;;
15990;SDS011;8100;50.994;4.538;2022-07-23T06:23:43;4.97;;;3.28;;
15990;SDS011;8100;50.994;4.538;2022-07-23T06:26:32;4.90;;;3.28;;
15990;SDS011;8100;50.994;4.538;2022-07-23T06:29:19;5.13;;;3.30;;
15990;SDS011;8100;50.994;4.538;2022-07-23T06:32:06;5.45;;;3.58;;
15990;SDS011;8100;50.994;4.538;2022-07-23T06:34:54;3.88;;;2.80;;
15990;SDS011;8100;50.994;4.538;2022-07-23T06:37:41;5.88;;;3.47;;
15990;SDS011;8100;50.994;4.538;2022-07-23T06:40:29;6.22;;;3.35;;
15990;SDS011;8100;50.994;4.538;2022-07-23T06:43:17;4.68;;;3.40;;
15990;SDS011;8100;50.994;4.538;2022-07-23T06:46:05;6.25;;;3.58;;
15990;SDS011;8100;50.994;4.538;2022-07-23T06:48:52;5.43;;;3.22;;
15990;SDS011;8100;50.994;4.538;2022-07-23T06:51:39;7.32;;;3.55;;
15990;SDS011;8100;50.994;4.538;2022-07-23T06:54:27;5.57;;;3.50;;
15990;SDS011;8100;50.994;4.538;2022-07-23T06:57:14;6.97;;;3.42;;
15990;SDS011;8100;50.994;4.538;2022-07-23T07:00:03;5.32;;;3.53;;
15990;SDS011;8100;50.994;4.538;2022-07-23T07:02:53;7.03;;;3.90;;
15990;SDS011;8100;50.994;4.538;2022-07-23T07:05:40;5.85;;;3.28;;
15990;SDS011;8100;50.994;4.538;2022-07-23T07:08:27;4.80;;;3.17;;
15990;SDS011;8100;50.994;4.538;2022-07-23T07:11:14;5.75;;;3.83;;
15990;SDS011;8100;50.994;4.538;2022-07-23T07:14:02;4.70;;;3.08;;
15990;SDS011;8100;50.994;4.538;2022-07-23T07:16:51;5.35;;;2.80;;
15990;SDS011;8100;50.994;4.538;2022-07-23T07:19:38;5.35;;;3.67;;
15990;SDS011;8100;50.994;4.538;2022-07-23T07:22:25;4.15;;;2.90;;
15990;SDS011;8100;50.994;4.538;2022-07-23T07:25:12;5.15;;;3.10;;
15990;SDS011;8100;50.994;4.538;2022-07-23T07:28:00;5.07;;;2.90;;
15990;SDS011;8100;50.994;4.538;2022-07-23T07:30:47;4.05;;;2.95;;
15990;SDS011;8100;50.994;4.538;2022-07-23T07:33:36;4.80;;;3.00;;
15990;SDS011;8100;50.994;4.538;2022-07-23T07:36:23;5.30;;;3.25;;
15990;SDS011;8100;50.994;4.538;2022-07-23T07:39:10;5.78;;;3.25;;
15990;SDS011;8100;50.994;4.538;2022-07-23T07:41:57;5.95;;;3.03;;
15990;SDS011;8100;50.994;4.538;2022-07-23T07:44:45;4.93;;;2.85;;
15990;SDS011;8100;50.994;4.538;2022-07-23T07:47:32;4.75;;;2.97;;
15990;SDS011;8100;50.994;4.538;2022-07-23T07:50:21;4.70;;;2.92;;
15990;SDS011;8100;50.994;4.538;2022-07-23T07:53:09;5.22;;;3.33;;
15990;SDS011;8100;50.994;4.538;2022-07-23T07:55:56;3.78;;;2.65;;
15990;SDS011;8100;50.994;4.538;2022-07-23T07:58:43;4.50;;;2.67;;
15990;SDS011;8100;50.994;4.538;2022-07-23T08:01:30;6.32;;;3.30;;
15990;SDS011;8100;50.994;4.538;2022-07-23T08:04:18;6.40;;;2.75;;
15990;SDS011;8100;50.994;4.538;2022-07-23T08:07:07;4.03;;;2.53;;
15990;SDS011;8100;50.994;4.538;2022-07-23T08:09:54;5.82;;;2.65;;
15990;SDS011;8100;50.994;4.538;2022-07-23T08:12:41;5.05;;;3.00;;
15990;SDS011;8100;50.994;4.538;2022-07-23T08:15:31;6.15;;;3.20;;
15990;SDS011;8100;50.994;4.538;2022-07-23T08:18:18;3.78;;;2.40;;
15990;SDS011;8100;50.994;4.538;2022-07-23T08:21:05;4.80;;;2.67;;
15990;SDS011;8100;50.994;4.538;2022-07-23T08:23:54;4.53;;;2.78;;
15990;SDS011;8100;50.994;4.538;2022-07-23T08:26:41;4.95;;;2.80;;
15990;SDS011;8100;50.994;4.538;2022-07-23T08:29:29;4.93;;;3.10;;
15990;SDS011;8100;50.994;4.538;2022-07-23T08:32:16;4.60;;;3.05;;
15990;SDS011;8100;50.994;4.538;2022-07-23T08:35:04;4.38;;;2.85;;
15990;SDS011;8100;50.994;4.538;2022-07-23T08:37:51;4.78;;;3.03;;
15990;SDS011;8100;50.994;4.538;2022-07-23T08:40:40;4.88;;;3.20;;
15990;SDS011;8100;50.994;4.538;2022-07-23T08:43:30;7.47;;;3.15;;
15990;SDS011;8100;50.994;4.538;2022-07-23T08:46:19;3.80;;;2.75;;
15990;SDS011;8100;50.994;4.538;2022-07-23T08:49:06;3.83;;;2.47;;
15990;SDS011;8100;50.994;4.538;2022-07-23T08:51:54;5.00;;;3.10;;
15990;SDS011;8100;50.994;4.538;2022-07-23T08:54:42;5.63;;;2.63;;
15990;SDS011;8100;50.994;4.538;2022-07-23T08:57:31;4.07;;;2.55;;
15990;SDS011;8100;50.994;4.538;2022-07-23T09:00:19;3.63;;;2.60;;
15990;SDS011;8100;50.994;4.538;2022-07-23T09:03:09;4.38;;;2.92;;
15990;SDS011;8100;50.994;4.538;2022-07-23T09:06:03;7.00;;;2.80;;
15990;SDS011;8100;50.994;4.538;2022-07-23T09:08:50;3.72;;;2.30;;
15990;SDS011;8100;50.994;4.538;2022-07-23T09:11:37;4.55;;;2.47;;
15990;SDS011;8100;50.994;4.538;2022-07-23T09:14:36;7.22;;;2.67;;
15990;SDS011;8100;50.994;4.538;2022-07-23T09:17:25;3.42;;;2.55;;
15990;SDS011;8100;50.994;4.538;2022-07-23T09:20:13;4.80;;;2.47;;
15990;SDS011;8100;50.994;4.538;2022-07-23T09:23:01;4.25;;;2.60;;
15990;SDS011;8100;50.994;4.538;2022-07-23T09:25:48;3.85;;;2.10;;
15990;SDS011;8100;50.994;4.538;2022-07-23T09:28:45;4.18;;;2.90;;
15990;SDS011;8100;50.994;4.538;2022-07-23T09:31:44;6.10;;;3.22;;
15990;SDS011;8100;50.994;4.538;2022-07-23T09:34:34;5.00;;;2.65;;
15990;SDS011;8100;50.994;4.538;2022-07-23T09:37:24;3.75;;;1.98;;
15990;SDS011;8100;50.994;4.538;2022-07-23T09:40:11;4.25;;;2.20;;
15990;SDS011;8100;50.994;4.538;2022-07-23T09:43:01;5.53;;;2.28;;
15990;SDS011;8100;50.994;4.538;2022-07-23T09:45:49;5.72;;;2.75;;
15990;SDS011;8100;50.994;4.538;2022-07-23T09:48:37;3.38;;;2.33;;
15990;SDS011;8100;50.994;4.538;2022-07-23T09:51:24;4.90;;;2.30;;
15990;SDS011;8100;50.994;4.538;2022-07-23T09:54:26;3.08;;;2.10;;
15990;SDS011;8100;50.994;4.538;2022-07-23T09:57:18;3.53;;;1.75;;
15990;SDS011;8100;50.994;4.538;2022-07-23T10:00:07;2.95;;;1.90;;
15990;SDS011;8100;50.994;4.538;2022-07-23T10:02:56;3.03;;;1.90;;
15990;SDS011;8100;50.994;4.538;2022-07-23T10:05:45;2.33;;;1.80;;
15990;SDS011;8100;50.994;4.538;2022-07-23T10:08:33;3.63;;;1.90;;
15990;SDS011;8100;50.994;4.538;2022-07-23T10:11:21;3.05;;;1.80;;
15990;SDS011;8100;50.994;4.538;2022-07-23T10:14:08;2.72;;;1.77;;
15990;SDS011;8100;50.994;4.538;2022-07-23T10:16:56;2.63;;;1.80;;
15990;SDS011;8100;50.994;4.538;2022-07-23T10:19:44;5.40;;;2.03;;
15990;SDS011;8100;50.994;4.538;2022-07-23T10:22:33;2.90;;;1.98;;
15990;SDS011;8100;50.994;4.538;2022-07-23T10:25:24;3.05;;;1.52;;
15990;SDS011;8100;50.994;4.538;2022-07-23T10:28:22;2.78;;;1.45;;
15990;SDS011;8100;50.994;4.538;2022-07-23T10:31:28;2.55;;;1.80;;
15990;SDS011;8100;50.994;4.538;2022-07-23T10:34:25;2.70;;;1.80;;
15990;SDS011;8100;50.994;4.538;2022-07-23T10:37:21;4.15;;;1.60;;
15990;SDS011;8100;50.994;4.538;2022-07-23T10:40:16;2.10;;;1.50;;
15990;SDS011;8100;50.994;4.538;2022-07-23T10:43:04;3.72;;;1.50;;
15990;SDS011;8100;50.994;4.538;2022-07-23T10:46:20;3.42;;;2.03;;
15990;SDS011;8100;50.994;4.538;2022-07-23T10:49:26;1.83;;;1.65;;
15990;SDS011;8100;50.994;4.538;2022-07-23T10:52:15;3.15;;;1.60;;
15990;SDS011;8100;50.994;4.538;2022-07-23T11:01:34;1.35;;;1.10;;
15990;SDS011;8100;50.994;4.538;2022-07-23T11:04:27;1.45;;;0.95;;
15990;SDS011;8100;50.994;4.538;2022-07-23T11:07:35;2.67;;;1.08;;
15990;SDS011;8100;50.994;4.538;2022-07-23T11:10:33;4.32;;;1.65;;
15990;SDS011;8100;50.994;4.538;2022-07-23T11:13:35;1.13;;;0.93;;
15990;SDS011;8100;50.994;4.538;2022-07-23T11:16:38;3.65;;;1.23;;
15990;SDS011;8100;50.994;4.538;2022-07-23T11:19:42;1.40;;;0.93;;
15990;SDS011;8100;50.994;4.538;2022-07-23T11:23:07;1.98;;;1.58;;
15990;SDS011;8100;50.994;4.538;2022-07-23T11:25:55;1.70;;;1.25;;
15990;SDS011;8100;50.994;4.538;2022-07-23T11:28:44;3.15;;;1.25;;
15990;SDS011;8100;50.994;4.538;2022-07-23T11:31:31;2.50;;;1.48;;
15990;SDS011;8100;50.994;4.538;2022-07-23T11:34:26;1.90;;;0.90;;
15990;SDS011;8100;50.994;4.538;2022-07-23T11:37:26;2.15;;;1.02;;
15990;SDS011;8100;50.994;4.538;2022-07-23T11:40:21;2.70;;;1.10;;
15990;SDS011;8100;50.994;4.538;2022-07-23T11:43:09;1.15;;;0.85;;
15990;SDS011;8100;50.994;4.538;2022-07-23T11:45:59;2.25;;;1.30;;
15990;SDS011;8100;50.994;4.538;2022-07-23T11:48:46;1.05;;;0.95;;
15990;SDS011;8100;50.994;4.538;2022-07-23T11:52:01;1.65;;;1.00;;
15990;SDS011;8100;50.994;4.538;2022-07-23T11:54:51;1.30;;;1.13;;
15990;SDS011;8100;50.994;4.538;2022-07-23T11:57:40;3.35;;;1.35;;
15990;SDS011;8100;50.994;4.538;2022-07-23T12:00:28;1.38;;;0.85;;
15990;SDS011;8100;50.994;4.538;2022-07-23T12:03:18;1.85;;;1.15;;
15990;SDS011;8100;50.994;4.538;2022-07-23T12:06:05;1.25;;;1.10;;
15990;SDS011;8100;50.994;4.538;2022-07-23T12:08:53;1.58;;;1.02;;
15990;SDS011;8100;50.994;4.538;2022-07-23T12:11:41;1.45;;;1.00;;
15990;SDS011;8100;50.994;4.538;2022-07-23T12:14:50;1.92;;;1.15;;
15990;SDS011;8100;50.994;4.538;2022-07-23T12:17:39;0.98;;;0.80;;
15990;SDS011;8100;50.994;4.538;2022-07-23T12:20:30;2.17;;;1.20;;
15990;SDS011;8100;50.994;4.538;2022-07-23T12:23:20;2.13;;;1.33;;
15990;SDS011;8100;50.994;4.538;2022-07-23T12:26:08;2.67;;;1.20;;
15990;SDS011;8100;50.994;4.538;2022-07-23T12:28:57;2.55;;;1.20;;
15990;SDS011;8100;50.994;4.538;2022-07-23T12:31:44;1.15;;;1.00;;
15990;SDS011;8100;50.994;4.538;2022-07-23T12:34:31;2.30;;;1.02;;
15990;SDS011;8100;50.994;4.538;2022-07-23T12:37:32;1.38;;;1.10;;
15990;SDS011;8100;50.994;4.538;2022-07-23T12:40:22;2.15;;;1.45;;
15990;SDS011;8100;50.994;4.538;2022-07-23T12:43:18;1.33;;;1.10;;
15990;SDS011;8100;50.994;4.538;2022-07-23T12:46:07;2.63;;;1.08;;
15990;SDS011;8100;50.994;4.538;2022-07-23T12:48:56;2.03;;;1.40;;
15990;SDS011;8100;50.994;4.538;2022-07-23T12:51:43;3.08;;;1.20;;
15990;SDS011;8100;50.994;4.538;2022-07-23T12:54:32;2.00;;;1.35;;
15990;SDS011;8100;50.994;4.538;2022-07-23T12:57:19;2.20;;;1.02;;
15990;SDS011;8100;50.994;4.538;2022-07-23T13:00:32;1.40;;;1.10;;
15990;SDS011;8100;50.994;4.538;2022-07-23T13:03:36;1.73;;;1.30;;
15990;SDS011;8100;50.994;4.538;2022-07-23T13:06:25;1.45;;;1.10;;
15990;SDS011;8100;50.994;4.538;2022-07-23T13:09:14;2.45;;;1.35;;
15990;SDS011;8100;50.994;4.538;2022-07-23T13:12:04;1.85;;;1.35;;
15990;SDS011;8100;50.994;4.538;2022-07-23T13:14:51;1.77;;;1.33;;
15990;SDS011;8100;50.994;4.538;2022-07-23T13:17:39;1.40;;;1.20;;
15990;SDS011;8100;50.994;4.538;2022-07-23T13:20:26;2.92;;;1.40;;
15990;SDS011;8100;50.994;4.538;2022-07-23T13:23:13;2.42;;;1.55;;
15990;SDS011;8100;50.994;4.538;2022-07-23T13:26:02;2.17;;;1.35;;
15990;SDS011;8100;50.994;4.538;2022-07-23T13:28:51;2.08;;;1.30;;
15990;SDS011;8100;50.994;4.538;2022-07-23T13:31:38;2.20;;;1.45;;
15990;SDS011;8100;50.994;4.538;2022-07-23T13:34:26;3.40;;;1.30;;
15990;SDS011;8100;50.994;4.538;2022-07-23T13:37:13;2.17;;;1.30;;
15990;SDS011;8100;50.994;4.538;2022-07-23T13:40:00;1.98;;;1.38;;
15990;SDS011;8100;50.994;4.538;2022-07-23T13:42:47;2.35;;;1.50;;
15990;SDS011;8100;50.994;4.538;2022-07-23T13:45:36;1.85;;;1.40;;
15990;SDS011;8100;50.994;4.538;2022-07-23T13:48:24;3.78;;;1.85;;
15990;SDS011;8100;50.994;4.538;2022-07-23T13:51:11;4.22;;;1.77;;
15990;SDS011;8100;50.994;4.538;2022-07-23T13:53:58;2.55;;;1.48;;
15990;SDS011;8100;50.994;4.538;2022-07-23T13:56:48;2.80;;;1.75;;
15990;SDS011;8100;50.994;4.538;2022-07-23T13:59:35;1.92;;;1.70;;
15990;SDS011;8100;50.994;4.538;2022-07-23T14:02:24;2.42;;;1.80;;
15990;SDS011;8100;50.994;4.538;2022-07-23T14:05:11;1.95;;;1.58;;
15990;SDS011;8100;50.994;4.538;2022-07-23T14:07:59;3.22;;;2.10;;
15990;SDS011;8100;50.994;4.538;2022-07-23T14:10:46;2.30;;;1.60;;
15990;SDS011;8100;50.994;4.538;2022-07-23T14:13:33;2.17;;;1.50;;
15990;SDS011;8100;50.994;4.538;2022-07-23T14:16:20;2.35;;;1.80;;
15990;SDS011;8100;50.994;4.538;2022-07-23T14:19:09;2.97;;;1.90;;
15990;SDS011;8100;50.994;4.538;2022-07-23T14:21:57;2.53;;;1.58;;
15990;SDS011;8100;50.994;4.538;2022-07-23T14:24:44;3.10;;;1.77;;
15990;SDS011;8100;50.994;4.538;2022-07-23T14:27:32;3.28;;;1.75;;
15990;SDS011;8100;50.994;4.538;2022-07-23T14:30:19;3.05;;;1.95;;
15990;SDS011;8100;50.994;4.538;2022-07-23T14:33:08;3.30;;;1.67;;
15990;SDS011;8100;50.994;4.538;2022-07-23T14:35:57;5.53;;;1.90;;
15990;SDS011;8100;50.994;4.538;2022-07-23T14:38:44;4.22;;;1.65;;
15990;SDS011;8100;50.994;4.538;2022-07-23T14:41:31;2.42;;;1.75;;
15990;SDS011;8100;50.994;4.538;2022-07-23T14:44:19;3.55;;;2.05;;
15990;SDS011;8100;50.994;4.538;2022-07-23T14:47:06;4.15;;;2.10;;
15990;SDS011;8100;50.994;4.538;2022-07-23T14:49:54;2.50;;;1.85;;
15990;SDS011;8100;50.994;4.538;2022-07-23T14:52:43;3.63;;;1.85;;
15990;SDS011;8100;50.994;4.538;2022-07-23T14:55:30;2.67;;;1.92;;
15990;SDS011;8100;50.994;4.538;2022-07-23T14:58:19;2.58;;;1.92;;
15990;SDS011;8100;50.994;4.538;2022-07-23T15:01:06;2.22;;;1.70;;
15990;SDS011;8100;50.994;4.538;2022-07-23T15:03:53;2.42;;;1.50;;
15990;SDS011;8100;50.994;4.538;2022-07-23T15:06:41;2.78;;;1.55;;
15990;SDS011;8100;50.994;4.538;2022-07-23T15:09:31;4.25;;;2.15;;
15990;SDS011;8100;50.994;4.538;2022-07-23T15:12:19;4.00;;;1.85;;
15990;SDS011;8100;50.994;4.538;2022-07-23T15:15:06;2.50;;;1.70;;
15990;SDS011;8100;50.994;4.538;2022-07-23T15:17:54;2.65;;;1.70;;
15990;SDS011;8100;50.994;4.538;2022-07-23T15:20:41;3.90;;;2.25;;
15990;SDS011;8100;50.994;4.538;2022-07-23T15:23:28;2.47;;;2.03;;
15990;SDS011;8100;50.994;4.538;2022-07-23T15:26:17;3.50;;;2.15;;
15990;SDS011;8100;50.994;4.538;2022-07-23T15:29:04;2.88;;;1.98;;
15990;SDS011;8100;50.994;4.538;2022-07-23T15:31:52;3.30;;;2.05;;
15990;SDS011;8100;50.994;4.538;2022-07-23T15:34:39;3.05;;;2.10;;
15990;SDS011;8100;50.994;4.538;2022-07-23T15:37:26;3.15;;;1.70;;
15990;SDS011;8100;50.994;4.538;2022-07-23T15:40:14;3.10;;;2.17;;
15990;SDS011;8100;50.994;4.538;2022-07-23T15:43:02;2.72;;;1.98;;
15990;SDS011;8100;50.994;4.538;2022-07-23T15:45:50;2.78;;;2.03;;
15990;SDS011;8100;50.994;4.538;2022-07-23T15:48:37;3.05;;;1.92;;
15990;SDS011;8100;50.994;4.538;2022-07-23T15:51:24;3.50;;;2.38;;
15990;SDS011;8100;50.994;4.538;2022-07-23T15:54:12;3.33;;;2.03;;
15990;SDS011;8100;50.994;4.538;2022-07-23T15:56:59;2.80;;;1.73;;
15990;SDS011;8100;50.994;4.538;2022-07-23T15:59:48;2.90;;;2.35;;
15990;SDS011;8100;50.994;4.538;2022-07-23T16:02:35;3.67;;;1.98;;
15990;SDS011;8100;50.994;4.538;2022-07-23T16:05:22;5.32;;;2.10;;
15990;SDS011;8100;50.994;4.538;2022-07-23T16:08:10;2.80;;;2.10;;
15990;SDS011;8100;50.994;4.538;2022-07-23T16:10:57;2.63;;;1.77;;
15990;SDS011;8100;50.994;4.538;2022-07-23T16:13:44;2.22;;;1.63;;
15990;SDS011;8100;50.994;4.538;2022-07-23T16:16:33;4.68;;;2.45;;
15990;SDS011;8100;50.994;4.538;2022-07-23T16:19:21;2.78;;;2.08;;
15990;SDS011;8100;50.994;4.538;2022-07-23T16:22:08;2.75;;;1.85;;
15990;SDS011;8100;50.994;4.538;2022-07-23T16:24:56;3.05;;;1.95;;
15990;SDS011;8100;50.994;4.538;2022-07-23T16:27:43;2.30;;;1.80;;
15990;SDS011;8100;50.994;4.538;2022-07-23T16:30:31;3.30;;;2.15;;
15990;SDS011;8100;50.994;4.538;2022-07-23T16:33:20;2.88;;;1.77;;
15990;SDS011;8100;50.994;4.538;2022-07-23T16:36:08;3.60;;;2.10;;
15990;SDS011;8100;50.994;4.538;2022-07-23T16:38:56;10.48;;;1.88;;
15990;SDS011;8100;50.994;4.538;2022-07-23T16:41:43;3.15;;;2.67;;
15990;SDS011;8100;50.994;4.538;2022-07-23T16:44:31;3.95;;;2.25;;
15990;SDS011;8100;50.994;4.538;2022-07-23T16:47:18;2.90;;;2.25;;
15990;SDS011;8100;50.994;4.538;2022-07-23T16:50:07;2.35;;;1.80;;
15990;SDS011;8100;50.994;4.538;2022-07-23T16:52:56;3.15;;;1.98;;
15990;SDS011;8100;50.994;4.538;2022-07-23T16:55:43;3.08;;;2.03;;
15990;SDS011;8100;50.994;4.538;2022-07-23T16:58:30;2.83;;;2.08;;
15990;SDS011;8100;50.994;4.538;2022-07-23T17:01:18;2.33;;;1.95;;
15990;SDS011;8100;50.994;4.538;2022-07-23T17:04:05;2.35;;;1.88;;
15990;SDS011;8100;50.994;4.538;2022-07-23T17:06:54;2.90;;;2.15;;
15990;SDS011;8100;50.994;4.538;2022-07-23T17:09:42;2.80;;;2.08;;
15990;SDS011;8100;50.994;4.538;2022-07-23T17:12:29;3.25;;;2.00;;
15990;SDS011;8100;50.994;4.538;2022-07-23T17:15:17;3.05;;;1.67;;
15990;SDS011;8100;50.994;4.538;2022-07-23T17:18:05;3.15;;;2.00;;